createdAt,value
2018-10-06T00:00:24.252Z,12.49
2018-10-06T00:01:52.424Z,12.50
2018-10-06T00:03:19.764Z,12.50
2018-10-06T00:04:46.214Z,12.50
2018-10-06T00:06:13.325Z,12.50
2018-10-06T00:07:41.822Z,12.50
2018-10-06T00:09:08.322Z,12.43
2018-10-06T00:10:35.550Z,12.34
2018-10-06T00:12:03.802Z,12.29
2018-10-06T00:13:31.228Z,12.21
2018-10-06T00:14:58.536Z,12.17
2018-10-06T00:16:24.926Z,12.13
2018-10-06T00:17:52.121Z,12.09
2018-10-06T00:19:20.472Z,12.06
2018-10-06T00:20:47.763Z,12.06
2018-10-06T00:22:14.229Z,12.04
2018-10-06T00:23:41.598Z,12.03
2018-10-06T00:25:08.795Z,11.99
2018-10-06T00:26:37.370Z,11.98
2018-10-06T00:28:04.677Z,12.00
2018-10-06T00:29:32.059Z,12.00
2018-10-06T00:30:59.423Z,12.01
2018-10-06T00:32:25.940Z,11.99
2018-10-06T00:33:53.423Z,11.99
2018-10-06T00:35:20.561Z,11.98
2018-10-06T00:36:48.057Z,11.97
2018-10-06T00:38:16.287Z,11.95
2018-10-06T00:39:43.602Z,11.94
2018-10-06T00:41:11.005Z,11.93
2018-10-06T00:42:37.325Z,11.93
2018-10-06T00:44:05.816Z,11.93
2018-10-06T00:45:32.201Z,11.91
2018-10-06T00:46:59.651Z,11.92
2018-10-06T00:48:28.205Z,11.94
2018-10-06T00:49:54.389Z,11.94
2018-10-06T00:51:22.854Z,11.94
2018-10-06T00:52:50.307Z,11.95
2018-10-06T00:54:17.555Z,11.95
2018-10-06T00:55:43.858Z,11.94
2018-10-06T00:57:11.260Z,11.90
2018-10-06T00:58:38.611Z,11.91
2018-10-06T01:00:06.874Z,11.88
2018-10-06T01:01:34.385Z,11.83
2018-10-06T01:03:01.531Z,11.73
2018-10-06T01:04:28.785Z,11.65
2018-10-06T01:05:54.740Z,11.64
2018-10-06T01:07:21.933Z,11.63
2018-10-06T01:08:50.256Z,11.60
2018-10-06T01:10:17.474Z,11.54
2018-10-06T01:11:44.794Z,11.47
2018-10-06T01:13:11.144Z,11.45
2018-10-06T01:14:39.486Z,11.44
2018-10-06T01:16:06.719Z,11.35
2018-10-06T01:17:33.824Z,11.19
2018-10-06T01:19:00.251Z,11.09
2018-10-06T01:20:27.627Z,10.96
2018-10-06T01:21:55.829Z,10.85
2018-10-06T01:23:23.160Z,10.78
2018-10-06T01:24:50.401Z,10.74
2018-10-06T01:26:17.476Z,10.69
2018-10-06T01:27:43.687Z,10.62
2018-10-06T01:29:11.230Z,10.58
2018-10-06T01:38:15.111Z,10.60
2018-10-06T01:53:25.558Z,10.87
2018-10-06T01:54:50.992Z,10.91
2018-10-06T01:56:18.047Z,10.93
2018-10-06T01:57:45.182Z,10.95
2018-10-06T01:59:13.525Z,10.96
2018-10-06T02:00:39.758Z,10.96
2018-10-06T02:02:08.027Z,10.96
2018-10-06T02:03:35.515Z,10.96
2018-10-06T02:05:02.754Z,10.95
2018-10-06T02:06:29.224Z,10.92
2018-10-06T02:07:57.495Z,10.88
2018-10-06T02:09:24.641Z,10.88
2018-10-06T02:10:51.820Z,10.80
2018-10-06T02:12:19.159Z,10.71
2018-10-06T02:13:45.531Z,10.59
2018-10-06T02:15:12.598Z,10.49
2018-10-06T02:16:39.996Z,10.43
2018-10-06T02:18:08.567Z,10.41
2018-10-06T02:19:34.898Z,10.41
2018-10-06T02:24:07.408Z,10.44
2018-10-06T02:25:33.150Z,10.48
2018-10-06T02:27:00.329Z,10.50
2018-10-06T02:28:27.653Z,10.52
2018-10-06T02:29:55.900Z,10.55
2018-10-06T02:31:22.866Z,10.56
2018-10-06T02:32:50.189Z,10.57
2018-10-06T02:34:17.435Z,10.58
2018-10-06T02:35:44.680Z,10.57
2018-10-06T02:37:10.943Z,10.57
2018-10-06T02:44:18.150Z,10.57
2018-10-06T02:45:43.896Z,10.53
2018-10-06T03:05:17.449Z,10.93
2018-10-06T03:06:42.735Z,10.97
2018-10-06T03:08:10.101Z,10.99
2018-10-06T03:09:38.533Z,10.99
2018-10-06T03:11:04.559Z,10.97
2018-10-06T03:12:32.107Z,10.94
2018-10-06T03:14:00.368Z,10.90
2018-10-06T03:15:26.203Z,10.86
2018-10-06T03:16:54.573Z,10.82
2018-10-06T03:18:21.916Z,10.77
2018-10-06T03:19:48.011Z,10.72
2018-10-06T03:21:15.209Z,10.67
2018-10-06T03:22:42.432Z,10.66
2018-10-06T03:24:09.716Z,10.63
2018-10-06T03:25:38.146Z,10.59
2018-10-06T03:27:05.391Z,10.57
2018-10-06T03:28:31.624Z,10.55
2018-10-06T03:43:33.892Z,10.76
2018-10-06T03:44:59.424Z,10.79
2018-10-06T03:46:27.684Z,10.82
2018-10-06T03:47:53.983Z,10.84
2018-10-06T03:49:21.384Z,10.84
2018-10-06T03:50:49.736Z,10.85
2018-10-06T03:53:34.617Z,10.85
2018-10-06T03:57:26.946Z,10.83
2018-10-06T03:58:53.561Z,10.83
2018-10-06T04:00:19.472Z,10.82
2018-10-06T04:19:33.597Z,10.75
2018-10-06T04:20:59.332Z,10.76
2018-10-06T04:22:27.447Z,10.75
2018-10-06T04:23:53.690Z,10.73
2018-10-06T04:25:21.037Z,10.69
2018-10-06T04:26:49.259Z,10.67
2018-10-06T04:28:16.346Z,10.65
2018-10-06T04:29:42.615Z,10.63
2018-10-06T04:31:09.976Z,10.62
2018-10-06T04:32:38.388Z,10.61
2018-10-06T04:34:04.894Z,10.59
2018-10-06T04:45:34.051Z,10.66
2018-10-06T04:46:59.733Z,10.68
2018-10-06T04:48:26.839Z,10.69
2018-10-06T04:49:55.008Z,10.69
2018-10-06T04:51:22.339Z,10.68
2018-10-06T04:52:49.798Z,10.65
2018-10-06T04:54:17.067Z,10.63
2018-10-06T04:55:43.114Z,10.59
2018-10-06T05:12:12.653Z,10.33
2018-10-06T05:36:05.361Z,10.32
2018-10-06T05:37:31.648Z,10.36
2018-10-06T06:52:39.075Z,11.64
2018-10-06T06:54:04.757Z,11.68
2018-10-06T06:55:32.877Z,11.71
2018-10-06T06:56:59.007Z,11.73
2018-10-06T07:02:48.524Z,11.76
2018-10-06T07:11:01.980Z,11.95
2018-10-06T07:12:27.708Z,12.00
2018-10-06T07:13:54.901Z,12.03
2018-10-06T07:15:23.157Z,12.06
2018-10-06T07:16:50.510Z,12.08
2018-10-06T07:18:16.589Z,12.08
2018-10-06T07:19:45.010Z,12.08
2018-10-06T07:21:11.246Z,12.07
2018-10-06T07:27:10.168Z,12.05
2018-10-06T07:28:37.925Z,12.09
2018-10-06T07:30:03.965Z,12.13
2018-10-06T07:31:32.412Z,12.16
2018-10-06T07:32:59.522Z,12.18
2018-10-06T07:35:53.173Z,12.20
2018-10-06T07:37:20.803Z,12.22
2018-10-06T07:38:48.191Z,12.23
2018-10-06T07:40:14.372Z,12.24
2018-10-06T07:44:46.921Z,12.29
2018-10-06T07:51:14.046Z,12.46
2018-10-06T07:54:17.675Z,12.58
2018-10-06T07:55:44.380Z,12.62
2018-10-06T07:57:49.389Z,12.66
2018-10-06T08:01:42.806Z,12.72
2018-10-06T08:08:58.247Z,12.93
2018-10-06T08:10:25.006Z,12.98
2018-10-06T08:11:51.064Z,13.01
2018-10-06T08:13:18.398Z,13.03
2018-10-06T08:14:46.610Z,13.06
2018-10-06T08:16:13.092Z,13.06
2018-10-06T08:17:41.424Z,13.08
2018-10-06T08:19:07.752Z,13.10
2018-10-06T08:20:35.094Z,13.12
2018-10-06T08:22:03.323Z,13.14
2018-10-06T08:23:30.688Z,13.15
2018-10-06T08:24:57.078Z,13.16
2018-10-06T08:26:25.235Z,13.18
2018-10-06T08:27:52.594Z,13.19
2018-10-06T08:29:20.044Z,13.20
2018-10-06T08:30:46.336Z,13.22
2018-10-06T08:32:14.755Z,13.25
2018-10-06T08:33:42.045Z,13.28
2018-10-06T08:35:08.378Z,13.31
2018-10-06T08:36:36.876Z,13.35
2018-10-06T08:38:03.232Z,13.38
2018-10-06T08:39:31.550Z,13.41
2018-10-06T08:40:59.149Z,13.45
2018-10-06T08:42:25.355Z,13.50
2018-10-06T08:43:52.564Z,13.55
2018-10-06T08:45:20.987Z,13.59
2018-10-06T08:46:47.270Z,13.64
2018-10-06T08:48:14.641Z,13.67
2018-10-06T08:49:42.085Z,13.71
2018-10-06T08:51:09.483Z,13.74
2018-10-06T08:52:38.010Z,13.78
2018-10-06T08:54:05.527Z,13.82
2018-10-06T08:55:31.822Z,13.86
2018-10-06T08:56:59.121Z,13.90
2018-10-06T08:58:26.580Z,13.94
2018-10-06T08:59:54.950Z,13.97
2018-10-06T09:01:21.358Z,14.01
2018-10-06T09:02:49.675Z,14.07
2018-10-06T09:04:16.148Z,14.11
2018-10-06T09:05:44.279Z,14.16
2018-10-06T09:07:10.536Z,14.21
2018-10-06T09:08:37.991Z,14.25
2018-10-06T09:10:05.329Z,14.30
2018-10-06T09:11:38.739Z,14.35
2018-10-06T09:13:00.122Z,14.41
2018-10-06T09:14:28.492Z,14.44
2018-10-06T09:15:55.804Z,14.49
2018-10-06T09:17:22.280Z,14.54
2018-10-06T09:18:49.354Z,14.58
2018-10-06T09:20:17.791Z,14.63
2018-10-06T09:21:45.190Z,14.68
2018-10-06T09:23:12.582Z,14.73
2018-10-06T09:24:38.778Z,14.77
2018-10-06T09:26:06.109Z,14.81
2018-10-06T09:27:33.513Z,14.88
2018-10-06T09:29:00.815Z,14.93
2018-10-06T09:30:29.236Z,14.97
2018-10-06T09:31:55.538Z,15.03
2018-10-06T09:33:23.819Z,15.07
2018-10-06T09:34:50.204Z,15.11
2018-10-06T09:36:18.784Z,15.15
2018-10-06T09:37:46.018Z,15.20
2018-10-06T09:39:13.203Z,15.24
2018-10-06T09:40:39.608Z,15.28
2018-10-06T09:42:07.208Z,15.33
2018-10-06T09:43:35.622Z,15.38
2018-10-06T09:45:01.948Z,15.43
2018-10-06T09:46:30.446Z,15.47
2018-10-06T09:47:56.685Z,15.51
2018-10-06T09:49:24.979Z,15.58
2018-10-06T09:50:52.322Z,15.62
2018-10-06T09:52:19.644Z,15.67
2018-10-06T09:53:46.897Z,15.72
2018-10-06T09:55:14.145Z,15.76
2018-10-06T09:56:40.526Z,15.80
2018-10-06T09:58:08.911Z,15.87
2018-10-06T09:59:35.539Z,15.94
2018-10-06T10:01:02.788Z,15.98
2018-10-06T10:02:31.377Z,16.02
2018-10-06T10:03:57.804Z,16.07
2018-10-06T10:05:25.215Z,16.10
2018-10-06T10:06:52.493Z,16.14
2018-10-06T10:08:20.839Z,16.19
2018-10-06T10:09:48.256Z,16.24
2018-10-06T10:11:14.433Z,16.29
2018-10-06T10:12:41.787Z,16.34
2018-10-06T10:14:09.140Z,16.40
2018-10-06T10:15:37.656Z,16.47
2018-10-06T10:17:04.082Z,16.54
2018-10-06T10:18:32.734Z,16.63
2018-10-06T10:19:58.757Z,16.70
2018-10-06T10:21:27.055Z,16.78
2018-10-06T10:22:53.369Z,16.87
2018-10-06T10:24:21.877Z,16.94
2018-10-06T10:25:48.321Z,16.99
2018-10-06T10:27:15.665Z,17.05
2018-10-06T10:28:43.913Z,17.09
2018-10-06T10:30:10.302Z,17.14
2018-10-06T10:31:37.819Z,17.21
2018-10-06T10:33:05.150Z,17.28
2018-10-06T10:34:32.829Z,17.34
2018-10-06T10:36:01.235Z,17.41
2018-10-06T10:37:27.593Z,17.48
2018-10-06T10:38:55.915Z,17.56
2018-10-06T10:40:23.323Z,17.62
2018-10-06T10:41:49.597Z,17.69
2018-10-06T10:43:17.928Z,17.77
2018-10-06T10:44:44.086Z,17.85
2018-10-06T10:46:11.567Z,17.92
2018-10-06T10:47:40.110Z,18.00
2018-10-06T10:49:07.616Z,18.08
2018-10-06T10:50:34.982Z,18.17
2018-10-06T10:52:01.269Z,18.28
2018-10-06T10:53:28.665Z,18.36
2018-10-06T10:54:56.223Z,18.43
2018-10-06T10:56:23.848Z,18.50
2018-10-06T10:57:52.500Z,18.57
2018-10-06T10:59:19.872Z,18.67
2018-10-06T11:00:46.100Z,18.81
2018-10-06T11:02:14.595Z,18.95
2018-10-06T11:03:40.868Z,19.12
2018-10-06T11:05:08.169Z,19.28
2018-10-06T11:06:35.551Z,19.46
2018-10-06T11:08:04.143Z,19.63
2018-10-06T11:09:30.525Z,19.80
2018-10-06T11:10:57.893Z,19.97
2018-10-06T11:12:26.297Z,20.12
2018-10-06T11:13:52.700Z,20.28
2018-10-06T11:15:20.265Z,20.46
2018-10-06T11:16:47.701Z,20.60
2018-10-06T11:18:15.099Z,20.74
2018-10-06T11:19:42.472Z,20.95
2018-10-06T11:21:09.612Z,21.10
2018-10-06T11:22:38.024Z,21.25
2018-10-06T11:24:04.504Z,21.35
2018-10-06T11:25:32.904Z,21.52
2018-10-06T11:26:59.301Z,21.64
2018-10-06T11:28:26.805Z,21.79
2018-10-06T11:29:55.445Z,21.88
2018-10-06T11:31:21.941Z,22.03
2018-10-06T11:32:49.426Z,22.13
2018-10-06T11:34:17.951Z,22.24
2018-10-06T11:35:44.234Z,22.28
2018-10-06T11:37:12.780Z,22.40
2018-10-06T11:38:39.201Z,22.47
2018-10-06T11:40:06.719Z,22.60
2018-10-06T11:41:35.118Z,22.65
2018-10-06T11:43:01.589Z,22.72
2018-10-06T11:44:29.156Z,22.82
2018-10-06T11:45:56.629Z,22.88
2018-10-06T11:47:25.032Z,22.98
2018-10-06T11:48:52.580Z,22.94
2018-10-06T11:50:19.086Z,22.96
2018-10-06T11:51:47.396Z,23.02
2018-10-06T11:53:14.714Z,23.03
2018-10-06T11:54:42.183Z,23.11
2018-10-06T11:56:09.657Z,23.18
2018-10-06T11:57:36.140Z,23.16
2018-10-06T11:59:03.279Z,23.22
2018-10-06T12:00:30.556Z,23.28
2018-10-06T12:01:58.084Z,23.38
2018-10-06T12:03:26.731Z,23.47
2018-10-06T12:04:53.302Z,23.34
2018-10-06T12:06:20.697Z,23.38
2018-10-06T12:07:49.314Z,23.22
2018-10-06T12:09:16.891Z,23.20
2018-10-06T12:10:43.194Z,23.34
2018-10-06T12:12:11.635Z,23.45
2018-10-06T12:13:39.370Z,23.52
2018-10-06T12:15:05.664Z,23.62
2018-10-06T12:16:33.352Z,23.55
2018-10-06T12:18:01.911Z,23.48
2018-10-06T12:19:28.484Z,23.57
2018-10-06T12:20:55.738Z,23.28
2018-10-06T12:22:23.033Z,23.01
2018-10-06T12:23:50.771Z,23.07
2018-10-06T12:25:18.229Z,23.19
2018-10-06T12:26:46.912Z,23.24
2018-10-06T12:28:13.176Z,23.34
2018-10-06T12:29:40.614Z,23.52
2018-10-06T12:31:08.297Z,23.59
2018-10-06T12:32:36.881Z,23.68
2018-10-06T12:34:03.370Z,23.75
2018-10-06T12:35:31.951Z,23.84
2018-10-06T12:36:58.369Z,23.95
2018-10-06T12:38:25.728Z,23.88
2018-10-06T12:39:54.127Z,23.79
2018-10-06T12:41:21.719Z,23.77
2018-10-06T12:42:49.207Z,23.85
2018-10-06T12:44:16.558Z,23.88
2018-10-06T12:45:44.094Z,23.98
2018-10-06T12:47:10.670Z,23.98
2018-10-06T12:48:38.360Z,24.06
2018-10-06T12:50:06.957Z,24.07
2018-10-06T12:51:33.597Z,24.11
2018-10-06T12:53:00.994Z,23.98
2018-10-06T12:54:28.639Z,24.10
2018-10-06T12:55:56.195Z,24.07
2018-10-06T12:57:24.687Z,24.12
2018-10-06T12:58:51.075Z,24.21
2018-10-06T13:00:19.845Z,24.27
2018-10-06T13:01:46.350Z,24.24
2018-10-06T13:03:14.796Z,24.01
2018-10-06T13:04:41.107Z,23.94
2018-10-06T13:06:09.913Z,23.98
2018-10-06T13:07:37.217Z,23.70
2018-10-06T13:09:03.818Z,23.50
2018-10-06T13:10:32.346Z,23.40
2018-10-06T13:12:00.040Z,23.38
2018-10-06T13:13:27.493Z,23.13
2018-10-06T13:14:54.094Z,23.07
2018-10-06T13:16:21.693Z,23.18
2018-10-06T13:17:50.407Z,23.25
2018-10-06T13:19:16.914Z,23.31
2018-10-06T13:20:44.400Z,23.10
2018-10-06T13:22:12.750Z,23.06
2018-10-06T13:23:40.438Z,23.05
2018-10-06T13:25:06.671Z,22.95
2018-10-06T13:26:35.446Z,22.99
2018-10-06T13:28:01.856Z,23.06
2018-10-06T13:29:29.499Z,23.13
2018-10-06T13:30:58.174Z,23.15
2018-10-06T13:32:25.959Z,23.07
2018-10-06T13:33:52.426Z,22.97
2018-10-06T13:35:20.057Z,23.03
2018-10-06T13:36:47.613Z,23.08
2018-10-06T13:38:15.028Z,23.10
2018-10-06T13:39:42.367Z,23.10
2018-10-06T13:41:10.923Z,23.14
2018-10-06T13:42:37.302Z,23.14
2018-10-06T13:44:04.878Z,23.12
2018-10-06T13:45:33.430Z,23.04
2018-10-06T13:47:01.082Z,22.82
2018-10-06T13:48:28.538Z,22.49
2018-10-06T13:49:56.069Z,22.27
2018-10-06T13:51:22.839Z,22.19
2018-10-06T13:52:50.449Z,22.22
2018-10-06T13:54:17.965Z,22.28
2018-10-06T13:55:45.281Z,22.24
2018-10-06T13:57:13.925Z,22.23
2018-10-06T13:58:40.484Z,22.12
2018-10-06T14:00:07.945Z,22.17
2018-10-06T14:01:35.568Z,22.22
2018-10-06T14:03:02.927Z,22.24
2018-10-06T14:04:31.542Z,22.21
2018-10-06T14:05:58.087Z,22.13
2018-10-06T14:07:25.606Z,22.11
2018-10-06T14:08:53.166Z,22.06
2018-10-06T14:10:20.686Z,22.06
2018-10-06T14:11:48.194Z,21.96
2018-10-06T14:13:16.797Z,21.96
2018-10-06T14:14:43.207Z,21.95
2018-10-06T14:16:10.649Z,21.81
2018-10-06T14:17:38.125Z,21.79
2018-10-06T14:19:05.654Z,21.75
2018-10-06T14:20:33.216Z,21.77
2018-10-06T14:22:00.731Z,21.76
2018-10-06T14:23:28.455Z,21.78
2018-10-06T14:24:56.734Z,21.66
2018-10-06T14:26:23.109Z,21.57
2018-10-06T14:27:51.708Z,21.47
2018-10-06T14:29:19.228Z,21.40
2018-10-06T14:30:46.795Z,21.43
2018-10-06T14:32:13.093Z,21.45
2018-10-06T14:33:40.768Z,21.42
2018-10-06T14:35:08.346Z,21.33
2018-10-06T14:36:35.864Z,21.32
2018-10-06T14:38:03.349Z,21.31
2018-10-06T14:39:31.868Z,21.30
2018-10-06T14:40:58.177Z,21.26
2018-10-06T14:42:25.738Z,21.21
2018-10-06T14:43:56.356Z,21.10
2018-10-06T14:45:20.721Z,21.02
2018-10-06T14:46:48.265Z,20.97
2018-10-06T14:48:15.728Z,20.88
2018-10-06T14:49:43.110Z,20.82
2018-10-06T14:51:10.840Z,20.79
2018-10-06T14:52:38.260Z,20.69
2018-10-06T14:54:07.029Z,20.63
2018-10-06T14:55:33.234Z,20.58
2018-10-06T14:57:00.843Z,20.49
2018-10-06T14:58:28.393Z,20.43
2018-10-06T14:59:56.896Z,20.35
2018-10-06T15:01:23.421Z,20.28
2018-10-06T15:02:50.928Z,20.25
2018-10-06T15:04:19.573Z,20.21
2018-10-06T15:05:46.099Z,20.18
2018-10-06T15:07:13.604Z,20.16
2018-10-06T15:08:41.189Z,20.11
2018-10-06T15:10:08.768Z,20.03
2018-10-06T15:11:36.252Z,19.99
2018-10-06T15:13:03.685Z,19.93
2018-10-06T15:14:32.294Z,19.89
2018-10-06T15:15:59.768Z,19.88
2018-10-06T15:17:27.065Z,19.89
2018-10-06T15:18:53.625Z,19.91
2018-10-06T15:20:21.259Z,19.93
2018-10-06T15:21:48.851Z,19.94
2018-10-06T15:23:16.189Z,19.96
2018-10-06T15:24:43.345Z,19.96
2018-10-06T15:26:12.019Z,19.95
2018-10-06T15:27:38.300Z,19.95
2018-10-06T15:29:06.813Z,19.95
2018-10-06T15:30:33.316Z,19.95
2018-10-06T15:32:00.812Z,19.93
2018-10-06T15:33:27.987Z,19.89
2018-10-06T15:34:56.668Z,19.88
2018-10-06T15:36:24.125Z,19.88
2018-10-06T15:37:50.540Z,19.88
2018-10-06T15:39:18.077Z,19.88
2018-10-06T15:40:45.569Z,19.87
2018-10-06T15:42:13.956Z,19.85
2018-10-06T15:43:41.369Z,19.83
2018-10-06T15:45:08.912Z,19.81
2018-10-06T15:46:35.265Z,19.79
2018-10-06T15:48:03.014Z,19.77
2018-10-06T15:49:30.506Z,19.74
2018-10-06T15:50:57.996Z,19.70
2018-10-06T15:52:25.575Z,19.66
2018-10-06T15:53:52.941Z,19.61
2018-10-06T15:55:20.447Z,19.56
2018-10-06T15:56:47.968Z,19.52
2018-10-06T15:58:16.563Z,19.47
2018-10-06T15:59:42.906Z,19.42
2018-10-06T16:01:10.269Z,19.37
2018-10-06T16:02:38.951Z,19.32
2018-10-06T16:04:05.356Z,19.27
2018-10-06T16:05:34.113Z,19.22
2018-10-06T16:07:00.418Z,19.17
2018-10-06T16:08:27.947Z,19.12
2018-10-06T16:09:56.416Z,19.07
2018-10-06T16:11:22.967Z,19.03
2018-10-06T16:12:51.501Z,18.98
2018-10-06T16:14:17.982Z,18.92
2018-10-06T16:15:45.392Z,18.86
2018-10-06T16:17:12.896Z,18.81
2018-10-06T16:18:40.359Z,18.74
2018-10-06T16:20:07.864Z,18.69
2018-10-06T16:21:35.507Z,18.64
2018-10-06T16:23:03.023Z,18.59
2018-10-06T16:24:30.352Z,18.53
2018-10-06T16:25:58.984Z,18.48
2018-10-06T16:27:25.223Z,18.42
2018-10-06T16:28:53.557Z,18.35
2018-10-06T16:30:20.032Z,18.29
2018-10-06T16:31:47.532Z,18.24
2018-10-06T16:33:15.035Z,18.18
2018-10-06T16:34:42.235Z,18.13
2018-10-06T16:36:09.683Z,18.02
2018-10-06T16:37:37.113Z,17.90
2018-10-06T16:39:04.761Z,17.80
2018-10-06T16:40:33.252Z,17.73
2018-10-06T16:41:59.704Z,17.70
2018-10-06T16:43:28.333Z,17.67
2018-10-06T16:44:54.729Z,17.64
2018-10-06T16:46:23.437Z,17.56
2018-10-06T16:47:50.909Z,17.56
2018-10-06T16:49:18.161Z,17.56
2018-10-06T16:50:45.532Z,17.54
2018-10-06T16:52:13.000Z,17.50
2018-10-06T16:53:39.458Z,17.38
2018-10-06T16:55:06.999Z,17.26
2018-10-06T16:56:35.590Z,17.12
2018-10-06T16:58:03.160Z,17.08
2018-10-06T16:59:29.449Z,17.04
2018-10-06T17:00:56.903Z,16.94
2018-10-06T17:02:24.365Z,16.93
2018-10-06T17:03:51.996Z,16.95
2018-10-06T17:05:20.235Z,16.92
2018-10-06T17:06:46.465Z,16.91
2018-10-06T17:08:13.779Z,16.91
2018-10-06T17:09:42.446Z,16.91
2018-10-06T17:11:08.781Z,16.90
2018-10-06T17:12:37.310Z,16.87
2018-10-06T17:14:04.541Z,16.85
2018-10-06T17:15:32.174Z,16.85
2018-10-06T17:16:59.540Z,16.84
2018-10-06T17:18:25.885Z,16.82
2018-10-06T17:19:53.141Z,16.79
2018-10-06T17:21:20.524Z,16.74
2018-10-06T17:22:48.071Z,16.73
2018-10-06T17:24:16.349Z,16.70
2018-10-06T17:25:42.461Z,16.69
2018-10-06T17:27:10.041Z,16.67
2018-10-06T17:28:37.398Z,16.62
2018-10-06T17:30:04.778Z,16.55
2018-10-06T17:31:32.246Z,16.46
2018-10-06T17:32:59.718Z,16.37
2018-10-06T17:34:28.135Z,16.26
2018-10-06T17:35:55.569Z,16.20
2018-10-06T17:37:22.236Z,16.15
2018-10-06T17:38:50.821Z,16.13
2018-10-06T17:40:17.178Z,16.10
2018-10-06T17:41:47.722Z,16.08
2018-10-06T17:43:11.811Z,16.08
2018-10-06T17:44:40.330Z,16.05
2018-10-06T17:46:06.836Z,16.04
2018-10-06T17:47:34.309Z,16.03
2018-10-06T17:49:02.947Z,16.00
2018-10-06T17:50:30.440Z,15.97
2018-10-06T17:51:56.769Z,15.95
2018-10-06T17:53:24.311Z,15.96
2018-10-06T17:54:51.620Z,15.97
2018-10-06T17:56:19.042Z,15.94
2018-10-06T17:57:46.370Z,15.94
2018-10-06T17:59:15.003Z,15.90
2018-10-06T18:00:42.502Z,15.86
2018-10-06T18:02:09.089Z,15.83
2018-10-06T18:03:36.407Z,15.79
2018-10-06T18:05:04.959Z,15.73
2018-10-06T18:06:31.356Z,15.68
2018-10-06T18:07:59.751Z,15.62
2018-10-06T18:09:27.206Z,15.56
2018-10-06T18:10:54.592Z,15.55
2018-10-06T18:12:20.973Z,15.54
2018-10-06T18:13:49.365Z,15.52
2018-10-06T18:15:15.898Z,15.50
2018-10-06T18:16:44.343Z,15.46
2018-10-06T18:18:11.533Z,15.41
